createdAt,value
2018-06-08T00:02:18.922Z,5.47
2018-06-08T00:04:45.966Z,4.80
2018-06-08T00:07:12.972Z,4.70
2018-06-08T00:09:40.013Z,4.03
2018-06-08T00:12:07.053Z,5.07
2018-06-08T00:14:34.051Z,5.33
2018-06-08T00:17:01.055Z,5.43
2018-06-08T00:19:28.552Z,6.13
2018-06-08T00:21:55.565Z,5.33
2018-06-08T00:24:22.578Z,4.90
2018-06-08T00:26:50.527Z,4.77
2018-06-08T00:29:17.537Z,5.17
2018-06-08T00:31:44.557Z,5.27
2018-06-08T00:34:13.323Z,5.70
2018-06-08T00:36:40.418Z,6.37
2018-06-08T00:39:09.198Z,5.13
2018-06-08T00:41:36.251Z,5.97
2018-06-08T00:44:03.252Z,6.17
2018-06-08T00:49:08.487Z,7.40
2018-06-08T00:51:35.493Z,6.73
2018-06-08T00:54:02.491Z,6.67
2018-06-08T00:56:29.633Z,5.97
2018-06-08T00:58:56.740Z,6.10
2018-06-08T01:01:23.778Z,5.63
2018-06-08T01:03:50.825Z,6.40
2018-06-08T01:06:17.826Z,6.80
2018-06-08T01:08:44.937Z,6.70
2018-06-08T01:11:11.964Z,6.43
2018-06-08T01:13:39.709Z,6.40
2018-06-08T01:16:06.716Z,6.07
2018-06-08T01:18:33.763Z,6.63
2018-06-08T01:21:00.769Z,6.77
2018-06-08T01:23:27.770Z,6.20
2018-06-08T01:25:54.817Z,7.00
2018-06-08T01:28:21.923Z,6.50
2018-06-08T01:30:48.940Z,6.33
2018-06-08T01:33:16.544Z,5.47
2018-06-08T01:35:43.354Z,6.30
2018-06-08T01:38:10.355Z,5.37
2018-06-08T01:40:37.402Z,6.80
2018-06-08T01:43:04.412Z,6.23
2018-06-08T01:45:31.418Z,6.97
2018-06-08T01:47:58.449Z,6.93
2018-06-08T01:50:25.458Z,6.87
2018-06-08T01:52:53.119Z,6.43
2018-06-08T01:55:20.364Z,6.37
2018-06-08T01:57:48.323Z,5.93
2018-06-08T02:00:18.766Z,5.93
2018-06-08T02:02:45.815Z,6.40
2018-06-08T02:07:52.368Z,5.47
2018-06-08T02:10:19.396Z,5.47
2018-06-08T02:12:47.117Z,5.70
2018-06-08T02:15:14.158Z,5.13
2018-06-08T02:17:41.162Z,5.07
2018-06-08T02:20:08.173Z,4.13
2018-06-08T02:22:35.237Z,4.60
2018-06-08T02:25:02.238Z,3.33
2018-06-08T02:27:30.125Z,3.80
2018-06-08T02:29:57.165Z,3.87
2018-06-08T02:32:24.195Z,2.93
2018-06-08T02:34:51.191Z,3.10
2018-06-08T02:37:18.235Z,3.90
2018-06-08T02:39:48.612Z,4.00
2018-06-08T02:42:15.703Z,4.43
2018-06-08T02:44:42.738Z,5.37
2018-06-08T02:47:09.742Z,4.23
2018-06-08T02:49:36.855Z,4.37
2018-06-08T02:52:04.759Z,4.67
2018-06-08T02:54:31.775Z,5.33
2018-06-08T02:56:58.801Z,5.07
2018-06-08T02:59:25.838Z,5.73
2018-06-08T03:01:52.840Z,4.87
2018-06-08T03:04:19.848Z,5.90
2018-06-08T03:06:46.893Z,5.13
2018-06-08T03:09:14.805Z,5.93
2018-06-08T03:11:41.812Z,5.90
2018-06-08T03:14:08.855Z,5.67
2018-06-08T03:16:35.859Z,5.93
2018-06-08T03:21:41.385Z,6.12
2018-06-08T03:24:08.378Z,5.60
2018-06-08T03:26:35.386Z,6.67
2018-06-08T03:29:02.437Z,6.60
2018-06-08T03:31:29.443Z,5.90
2018-06-08T03:33:56.446Z,5.90
2018-06-08T03:36:23.494Z,6.93
2018-06-08T03:41:30.190Z,7.90
2018-06-08T03:43:57.196Z,7.50
2018-06-08T03:49:01.401Z,7.90
2018-06-08T03:51:28.380Z,6.90
2018-06-08T03:53:55.392Z,6.77
2018-06-08T03:56:23.305Z,7.83
2018-06-08T03:58:50.328Z,6.40
2018-06-08T04:01:17.324Z,7.03
2018-06-08T04:03:45.188Z,6.57
2018-06-08T04:06:13.024Z,4.90
2018-06-08T04:08:40.124Z,6.13
2018-06-08T04:11:07.181Z,5.43
2018-06-08T04:13:34.199Z,5.77
2018-06-08T04:16:01.248Z,5.97
2018-06-08T04:18:29.284Z,5.13
2018-06-08T04:20:56.552Z,5.27
2018-06-08T04:23:23.551Z,5.60
2018-06-08T04:25:50.625Z,5.73
2018-06-08T04:28:18.504Z,6.30
2018-06-08T04:30:45.564Z,6.50
2018-06-08T04:33:13.487Z,5.77
2018-06-08T04:35:40.483Z,6.17
2018-06-08T04:38:07.498Z,5.50
2018-06-08T04:40:34.528Z,4.93
2018-06-08T04:43:01.612Z,4.70
2018-06-08T04:45:28.626Z,3.23
2018-06-08T04:47:56.556Z,4.40
2018-06-08T04:50:23.553Z,5.00
2018-06-08T04:52:50.543Z,5.70
2018-06-08T04:55:19.385Z,5.00
2018-06-08T05:00:25.702Z,5.12
2018-06-08T05:02:52.704Z,4.60
2018-06-08T05:05:19.700Z,4.30
2018-06-08T05:07:46.914Z,4.13
2018-06-08T05:10:15.713Z,3.80
2018-06-08T05:12:42.647Z,3.50
2018-06-08T05:18:59.235Z,3.20
2018-06-08T05:21:26.231Z,4.23
2018-06-08T05:23:56.078Z,4.97
2018-06-08T05:26:23.101Z,5.60
2018-06-08T05:31:30.280Z,6.43
2018-06-08T05:33:57.326Z,5.63
2018-06-08T05:36:24.336Z,5.83
2018-06-08T05:38:51.354Z,5.47
2018-06-08T05:41:18.432Z,5.47
2018-06-08T05:43:45.463Z,4.10
2018-06-08T05:46:14.277Z,3.93
2018-06-08T05:48:41.347Z,3.80
2018-06-08T05:51:08.362Z,3.90
2018-06-08T05:53:35.396Z,3.90
2018-06-08T05:56:02.442Z,3.30
2018-06-08T05:58:29.451Z,3.10
2018-06-08T06:00:56.474Z,3.40
2018-06-08T06:03:23.538Z,2.80
2018-06-08T06:05:50.555Z,3.13
2018-06-08T06:08:17.569Z,4.07
2018-06-08T06:10:44.615Z,4.00
2018-06-08T06:13:11.726Z,4.27
2018-06-08T06:15:38.737Z,4.30
2018-06-08T06:18:05.791Z,5.33
2018-06-08T06:20:33.196Z,5.07
2018-06-08T06:23:00.287Z,5.07
2018-06-08T06:25:28.158Z,4.60
2018-06-08T06:27:55.176Z,5.10
2018-06-08T06:30:24.964Z,4.77
2018-06-08T06:32:51.116Z,5.07
2018-06-08T06:35:18.129Z,4.53
2018-06-08T06:37:45.154Z,4.23
2018-06-08T06:42:51.077Z,4.37
2018-06-08T06:45:18.224Z,4.13
2018-06-08T06:47:45.348Z,4.07
2018-06-08T06:50:12.466Z,3.87
2018-06-08T06:52:40.569Z,4.10
2018-06-08T06:55:07.603Z,4.83
2018-06-08T06:57:35.461Z,4.73
2018-06-08T07:02:41.660Z,5.07
2018-06-08T07:05:08.722Z,4.33
2018-06-08T07:07:36.505Z,4.80
2018-06-08T07:10:03.532Z,4.70
2018-06-08T07:12:31.561Z,4.60
2018-06-08T07:14:58.598Z,4.63
2018-06-08T07:17:27.909Z,4.33
2018-06-08T07:19:54.965Z,4.17
2018-06-08T07:22:21.986Z,3.93
2018-06-08T07:24:49.053Z,4.23
2018-06-08T07:27:16.115Z,4.47
2018-06-08T07:29:44.123Z,4.47
2018-06-08T07:32:11.152Z,4.80
2018-06-08T07:34:38.204Z,4.57
2018-06-08T07:37:05.258Z,3.63
2018-06-08T07:39:33.332Z,3.27
2018-06-08T07:42:03.942Z,4.13
2018-06-08T07:44:31.833Z,3.77
2018-06-08T07:46:58.856Z,3.63
2018-06-08T07:49:26.849Z,3.43
2018-06-08T07:51:53.909Z,4.10
2018-06-08T07:54:21.897Z,4.30
2018-06-08T07:56:48.981Z,4.33
2018-06-08T07:59:16.006Z,3.93
2018-06-08T08:01:43.147Z,3.90
2018-06-08T08:04:10.193Z,3.63
2018-06-08T08:06:37.212Z,4.13
2018-06-08T08:11:39.766Z,4.70
2018-06-08T08:14:06.789Z,3.80
2018-06-08T08:16:33.808Z,4.37
2018-06-08T08:19:01.718Z,4.10
2018-06-08T08:21:28.742Z,4.40
2018-06-08T08:23:55.770Z,3.90
2018-06-08T08:26:22.821Z,4.47
2018-06-08T08:28:49.832Z,4.10
2018-06-08T08:31:16.835Z,3.90
2018-06-08T08:33:43.893Z,3.60
2018-06-08T08:36:10.906Z,4.03
2018-06-08T08:38:37.999Z,3.93
2018-06-08T08:41:05.034Z,3.60
2018-06-08T08:43:32.036Z,4.13
2018-06-08T08:45:59.062Z,3.60
2018-06-08T08:48:26.104Z,3.83
2018-06-08T08:50:53.139Z,3.50
2018-06-08T08:53:20.154Z,3.50
2018-06-08T08:55:47.577Z,3.27
2018-06-08T08:58:14.561Z,2.97
2018-06-08T09:00:41.563Z,3.63
2018-06-08T09:03:08.627Z,3.47
2018-06-08T09:05:35.728Z,3.00
2018-06-08T09:08:02.758Z,1.60
2018-06-08T09:10:29.803Z,2.27
2018-06-08T09:12:56.804Z,3.00
2018-06-08T09:15:24.801Z,3.40
2018-06-08T09:17:51.832Z,2.87
2018-06-08T09:20:18.842Z,2.27
2018-06-08T09:22:46.801Z,1.40
2018-06-08T09:25:13.828Z,2.90
2018-06-08T09:30:21.390Z,2.80
2018-06-08T09:32:48.479Z,1.40
2018-06-08T09:35:15.489Z,1.50
2018-06-08T09:37:42.528Z,1.47
2018-06-08T09:40:09.576Z,1.30
2018-06-08T09:42:37.646Z,1.17
2018-06-08T09:45:04.719Z,1.10
2018-06-08T09:47:32.601Z,1.20
2018-06-08T09:49:59.615Z,0.90
2018-06-08T09:52:28.397Z,0.80
2018-06-08T09:54:53.700Z,0.87
2018-06-08T09:57:20.702Z,0.70
2018-06-08T09:59:47.842Z,0.80
2018-06-08T10:02:14.832Z,0.80
2018-06-08T10:04:41.852Z,0.90
2018-06-08T10:07:09.341Z,0.73
2018-06-08T10:09:36.363Z,0.80
2018-06-08T10:12:04.369Z,0.50
2018-06-08T10:17:10.206Z,0.70
2018-06-08T10:19:37.270Z,0.80
2018-06-08T10:22:06.335Z,1.00
2018-06-08T10:24:33.380Z,0.70
2018-06-08T10:30:10.351Z,0.90
2018-06-08T10:32:37.404Z,0.60
2018-06-08T10:35:06.424Z,0.90
2018-06-08T10:37:33.385Z,0.83
2018-06-08T10:40:00.525Z,0.80
2018-06-08T10:42:27.602Z,0.83
2018-06-08T10:44:54.622Z,0.77
2018-06-08T10:47:21.682Z,0.70
2018-06-08T10:49:48.706Z,0.80
2018-06-08T10:52:15.718Z,0.70
2018-06-08T10:54:42.762Z,1.07
2018-06-08T10:57:09.844Z,1.00
2018-06-08T10:59:37.391Z,1.13
2018-06-08T11:02:04.751Z,0.70
2018-06-08T11:04:31.756Z,0.80
2018-06-08T11:06:58.772Z,0.90
2018-06-08T11:09:25.872Z,0.70
2018-06-08T11:11:52.958Z,0.80
2018-06-08T11:14:19.991Z,0.90
2018-06-08T11:16:47.133Z,0.70
2018-06-08T11:19:17.190Z,0.90
2018-06-08T11:21:44.229Z,0.80
2018-06-08T11:24:11.456Z,0.70
2018-06-08T11:26:38.438Z,1.03
2018-06-08T11:29:05.458Z,0.83
2018-06-08T11:31:32.496Z,1.00
2018-06-08T11:33:59.499Z,0.70
2018-06-08T11:36:33.458Z,0.70
2018-06-08T11:38:55.377Z,1.17
2018-06-08T11:41:23.393Z,0.80
2018-06-08T11:43:50.399Z,0.73
2018-06-08T11:46:18.323Z,0.73
2018-06-08T11:51:23.833Z,1.00
2018-06-08T11:53:50.839Z,0.80
2018-06-08T11:56:17.836Z,0.90
2018-06-08T11:58:44.861Z,0.90
2018-06-08T12:01:11.859Z,0.73
2018-06-08T12:03:38.878Z,0.90
2018-06-08T12:08:46.047Z,1.00
2018-06-08T12:11:13.072Z,1.12
2018-06-08T12:13:40.073Z,0.70
2018-06-08T12:16:07.071Z,1.00
2018-06-08T12:18:34.122Z,0.90
2018-06-08T12:23:43.258Z,0.80
2018-06-08T12:26:10.245Z,0.77
2018-06-08T12:28:38.204Z,0.87
2018-06-08T12:31:05.246Z,0.93
2018-06-08T12:33:32.247Z,0.80
2018-06-08T12:35:59.247Z,0.80
2018-06-08T12:38:26.263Z,0.70
2018-06-08T12:40:53.266Z,0.80
2018-06-08T12:43:21.116Z,0.60
2018-06-08T12:45:48.175Z,0.70
2018-06-08T12:48:15.983Z,1.20
2018-06-08T12:50:42.990Z,0.97
2018-06-08T12:53:10.054Z,0.60
2018-06-08T12:58:15.271Z,0.80
2018-06-08T13:00:42.291Z,0.80
2018-06-08T13:03:09.313Z,0.80
2018-06-08T13:05:36.395Z,0.57
2018-06-08T13:08:03.412Z,0.80
2018-06-08T13:10:31.171Z,0.90
2018-06-08T13:12:58.255Z,0.50
2018-06-08T13:15:26.177Z,0.60
2018-06-08T13:17:53.193Z,0.60
2018-06-08T13:20:21.220Z,0.43
2018-06-08T13:25:28.115Z,0.80
2018-06-08T13:27:55.152Z,0.73
2018-06-08T13:30:22.184Z,0.40
2018-06-08T13:32:49.249Z,0.50
2018-06-08T13:35:16.319Z,0.50
2018-06-08T13:37:43.364Z,0.40
2018-06-08T13:40:11.404Z,0.50
2018-06-08T13:42:40.226Z,0.60
2018-06-08T13:45:15.177Z,0.50
2018-06-08T13:50:25.875Z,0.60
2018-06-08T13:53:00.371Z,0.50
2018-06-08T13:59:39.841Z,0.47
2018-06-08T14:07:41.337Z,0.70
2018-06-08T14:10:11.952Z,0.90
2018-06-08T14:12:37.886Z,0.80
2018-06-08T14:15:05.999Z,0.73
2018-06-08T14:17:39.902Z,0.70
2018-06-08T14:20:07.854Z,0.53
2018-06-08T14:25:11.586Z,0.80
2018-06-08T14:27:38.827Z,0.70
2018-06-08T14:30:05.735Z,0.80
2018-06-08T14:32:33.894Z,0.70
2018-06-08T14:35:01.535Z,0.70
2018-06-08T14:37:29.155Z,0.90
2018-06-08T14:39:56.918Z,0.90
2018-06-08T14:42:23.976Z,0.77
2018-06-08T14:44:51.015Z,0.73
2018-06-08T14:49:58.102Z,0.80
2018-06-08T14:52:25.161Z,1.17
2018-06-08T14:54:52.248Z,0.80
2018-06-08T14:57:19.258Z,0.80
2018-06-08T14:59:46.792Z,0.70
2018-06-08T15:02:13.785Z,0.70
2018-06-08T15:04:40.847Z,0.70
2018-06-08T15:07:07.836Z,0.50
2018-06-08T15:09:34.842Z,0.73
2018-06-08T15:12:01.838Z,0.60
2018-06-08T15:14:29.738Z,0.70
2018-06-08T15:16:56.733Z,0.57
2018-06-08T15:19:23.760Z,1.13
2018-06-08T15:21:50.918Z,0.70
2018-06-08T15:24:18.006Z,1.07
2018-06-08T15:26:45.005Z,0.80
2018-06-08T15:29:12.060Z,0.80
2018-06-08T15:31:39.161Z,0.70
2018-06-08T15:34:06.174Z,0.50
2018-06-08T15:36:33.230Z,0.87
2018-06-08T15:39:00.239Z,1.03
2018-06-08T15:41:28.197Z,0.70
2018-06-08T15:43:56.178Z,0.87
2018-06-08T15:46:23.275Z,0.70
2018-06-08T15:48:50.284Z,0.90
2018-06-08T15:51:17.341Z,0.63
2018-06-08T15:53:44.327Z,0.63
2018-06-08T15:56:11.335Z,0.73
2018-06-08T15:58:39.323Z,1.00
2018-06-08T16:01:06.330Z,0.97
2018-06-08T16:03:34.286Z,1.10
2018-06-08T16:06:01.279Z,0.80
2018-06-08T16:08:28.307Z,0.90
2018-06-08T16:10:55.352Z,1.03
2018-06-08T16:13:22.396Z,1.17
2018-06-08T16:18:30.922Z,1.10
2018-06-08T16:20:57.925Z,1.03
2018-06-08T16:23:24.912Z,0.90
2018-06-08T16:25:51.951Z,1.13
2018-06-08T16:28:18.952Z,1.10
2018-06-08T16:30:45.957Z,1.10
2018-06-08T16:33:13.007Z,1.10
2018-06-08T16:35:40.259Z,0.90
2018-06-08T16:38:07.286Z,1.07
2018-06-08T16:40:34.359Z,1.10
2018-06-08T16:43:01.394Z,1.57
2018-06-08T16:45:29.267Z,1.40
2018-06-08T16:48:00.515Z,1.23
2018-06-08T16:50:28.383Z,1.40
2018-06-08T16:52:56.187Z,1.50
2018-06-08T16:55:24.172Z,1.20
2018-06-08T16:57:52.852Z,1.43
2018-06-08T17:00:19.810Z,1.60
2018-06-08T17:02:47.763Z,1.50
2018-06-08T17:05:15.735Z,1.60
2018-06-08T17:07:45.498Z,1.80
2018-06-08T17:10:12.546Z,1.50
2018-06-08T17:12:40.402Z,1.40
2018-06-08T17:15:07.403Z,1.83
2018-06-08T17:17:34.453Z,1.67
2018-06-08T17:20:01.462Z,1.67
2018-06-08T17:22:28.462Z,1.80
2018-06-08T17:24:55.504Z,1.73
2018-06-08T17:27:22.512Z,1.93
2018-06-08T17:29:50.432Z,1.50
2018-06-08T17:32:18.172Z,1.57
2018-06-08T17:34:45.944Z,1.73
2018-06-08T17:39:51.470Z,1.90
2018-06-08T17:42:18.560Z,2.13
2018-06-08T17:44:46.325Z,1.77
2018-06-08T17:47:13.338Z,2.03
2018-06-08T17:49:40.336Z,1.73
2018-06-08T17:52:07.361Z,2.20
2018-06-08T17:54:34.411Z,1.50
2018-06-08T17:57:01.406Z,1.30
2018-06-08T17:59:29.491Z,1.60
2018-06-08T18:01:57.335Z,1.60
2018-06-08T18:04:24.456Z,2.00
2018-06-08T18:06:51.458Z,1.73
2018-06-08T18:11:50.114Z,1.70
2018-06-08T18:14:17.163Z,1.63
2018-06-08T18:16:45.176Z,1.60
2018-06-08T18:19:12.204Z,1.37
2018-06-08T18:21:39.225Z,1.63
2018-06-08T18:24:06.289Z,1.70
2018-06-08T18:26:33.295Z,1.60
2018-06-08T18:29:00.332Z,1.47
2018-06-08T18:31:27.344Z,1.80
2018-06-08T18:36:35.334Z,1.63
2018-06-08T18:39:02.513Z,1.90
2018-06-08T18:41:29.510Z,1.97
2018-06-08T18:43:56.559Z,1.70
2018-06-08T18:46:23.576Z,1.93
2018-06-08T18:48:50.601Z,1.40
2018-06-08T18:51:17.627Z,1.67
2018-06-08T18:53:44.631Z,1.27
2018-06-08T18:56:11.659Z,1.73
2018-06-08T18:58:38.836Z,1.53
2018-06-08T19:01:05.863Z,1.40
2018-06-08T19:03:33.137Z,1.80
2018-06-08T19:06:00.199Z,1.60
2018-06-08T19:08:27.245Z,1.73
2018-06-08T19:10:54.350Z,1.70
2018-06-08T19:13:21.351Z,1.60
2018-06-08T19:15:48.399Z,1.63
2018-06-08T19:18:15.821Z,2.40
2018-06-08T19:20:42.690Z,1.47
2018-06-08T19:23:09.739Z,1.83
2018-06-08T19:25:37.002Z,1.67
2018-06-08T19:28:04.011Z,1.40
2018-06-08T19:30:31.036Z,1.60
2018-06-08T19:32:58.036Z,1.57
2018-06-08T19:35:25.057Z,1.73
2018-06-08T19:37:53.112Z,3.13
2018-06-08T19:40:20.122Z,2.27
2018-06-08T19:42:47.132Z,2.20
2018-06-08T19:45:14.168Z,2.10
2018-06-08T19:47:41.176Z,1.77
2018-06-08T19:50:08.188Z,1.83
2018-06-08T19:55:13.722Z,2.40
2018-06-08T19:57:40.761Z,1.67
2018-06-08T20:00:07.795Z,2.13
2018-06-08T20:02:34.788Z,2.07
2018-06-08T20:05:01.836Z,1.87
2018-06-08T20:07:28.849Z,1.80
2018-06-08T20:09:57.407Z,1.50
2018-06-08T20:12:24.464Z,1.80
2018-06-08T20:14:51.564Z,1.77
2018-06-08T20:17:18.578Z,1.90
2018-06-08T20:19:45.625Z,2.00
2018-06-08T20:22:12.673Z,1.67
2018-06-08T20:24:39.664Z,1.70
2018-06-08T20:27:06.708Z,1.90
2018-06-08T20:29:33.741Z,1.90
2018-06-08T20:32:00.747Z,2.60
2018-06-08T20:34:27.797Z,2.50
2018-06-08T20:36:54.791Z,2.00
2018-06-08T20:39:21.791Z,2.30
2018-06-08T20:41:48.836Z,1.83
2018-06-08T20:44:15.838Z,2.10
2018-06-08T20:46:42.828Z,2.07
2018-06-08T20:49:09.873Z,2.00
2018-06-08T20:51:36.870Z,1.80
2018-06-08T20:54:04.134Z,2.37
2018-06-08T20:56:31.524Z,2.37
2018-06-08T20:58:58.498Z,2.53
2018-06-08T21:01:25.497Z,2.23
2018-06-08T21:03:52.527Z,1.70
2018-06-08T21:06:19.520Z,1.40
2018-06-08T21:08:46.525Z,1.50
2018-06-08T21:11:13.567Z,2.40
2018-06-08T21:13:40.641Z,1.73
2018-06-08T21:18:47.093Z,2.25
2018-06-08T21:21:14.089Z,1.97
2018-06-08T21:26:11.146Z,2.00
2018-06-08T21:28:37.060Z,2.40
2018-06-08T21:31:05.056Z,2.50
2018-06-08T21:33:31.993Z,1.90
2018-06-08T21:35:59.037Z,2.53
2018-06-08T21:38:26.042Z,1.90
2018-06-08T21:40:53.088Z,2.40
2018-06-08T21:43:20.103Z,2.07
2018-06-08T21:45:47.945Z,1.73
2018-06-08T21:48:15.177Z,1.93
2018-06-08T21:50:42.503Z,2.20
2018-06-08T21:53:09.334Z,2.30
2018-06-08T21:55:36.386Z,2.00
2018-06-08T21:58:03.409Z,2.00
2018-06-08T22:00:30.432Z,1.80
2018-06-08T22:02:57.496Z,2.83
2018-06-08T22:05:24.510Z,2.37
2018-06-08T22:07:51.503Z,2.50
2018-06-08T22:10:18.702Z,2.70
2018-06-08T22:12:45.700Z,2.37
2018-06-08T22:15:12.741Z,2.47
2018-06-08T22:17:43.674Z,2.83
2018-06-08T22:20:10.672Z,2.60
2018-06-08T22:22:37.666Z,2.80
2018-06-08T22:25:04.723Z,2.30
2018-06-08T22:27:31.722Z,2.20
2018-06-08T22:29:58.775Z,2.33
2018-06-08T22:37:45.195Z,2.60
2018-06-08T22:40:12.262Z,2.40
2018-06-08T22:42:39.255Z,2.80
2018-06-08T22:45:06.656Z,2.33
2018-06-08T22:47:33.662Z,2.40
2018-06-08T22:50:00.698Z,2.43
2018-06-08T22:52:27.745Z,2.50
2018-06-08T22:54:54.806Z,2.10
2018-06-08T22:57:21.854Z,2.60
2018-06-08T22:59:48.920Z,2.30
2018-06-08T23:02:15.943Z,2.50
2018-06-08T23:04:43.399Z,2.60
2018-06-08T23:07:10.460Z,2.37
2018-06-08T23:09:37.478Z,2.20
2018-06-08T23:12:04.483Z,2.60
2018-06-08T23:14:34.411Z,2.50
2018-06-08T23:17:01.434Z,2.80
2018-06-08T23:19:28.884Z,2.83
2018-06-08T23:21:55.927Z,3.20
2018-06-08T23:24:22.910Z,2.60
2018-06-08T23:26:49.983Z,2.60
2018-06-08T23:29:17.644Z,2.63
2018-06-08T23:31:44.943Z,2.70
2018-06-08T23:34:11.966Z,2.70
2018-06-08T23:36:39.064Z,2.50
2018-06-08T23:39:06.131Z,2.57
2018-06-08T23:41:33.162Z,2.80
2018-06-08T23:44:01.392Z,3.17
2018-06-08T23:46:29.386Z,2.70
2018-06-08T23:48:56.479Z,2.50
2018-06-08T23:54:02.455Z,2.50
2018-06-08T23:56:30.443Z,2.67
2018-06-08T23:59:00.658Z,2.20
